createdAt,value
2023-02-16T00:03:18.901Z,479.00
2023-02-16T00:04:18.883Z,476.00
2023-02-16T00:54:54.453Z,479.00
2023-02-16T00:55:55.407Z,476.00
2023-02-16T00:56:55.408Z,477.00
2023-02-16T00:57:55.401Z,477.00
2023-02-16T00:58:55.394Z,476.00
2023-02-16T00:59:55.376Z,475.00
2023-02-16T01:00:55.452Z,475.00
2023-02-16T01:01:55.427Z,475.00
2023-02-16T01:02:55.348Z,473.00
2023-02-16T01:03:55.339Z,477.00
2023-02-16T01:04:55.339Z,473.00
2023-02-16T01:05:55.329Z,473.00
2023-02-16T01:06:55.313Z,474.00
2023-02-16T01:07:55.300Z,473.00
2023-02-16T01:08:55.291Z,473.00
2023-02-16T01:09:55.283Z,474.00
2023-02-16T01:10:55.310Z,474.00
2023-02-16T01:11:55.278Z,474.00
2023-02-16T01:12:55.264Z,474.00
2023-02-16T01:13:55.245Z,474.00
2023-02-16T01:14:55.243Z,472.00
2023-02-16T01:15:55.348Z,469.00
2023-02-16T01:16:55.229Z,472.00
2023-02-16T01:17:55.219Z,472.00
2023-02-16T01:18:55.206Z,471.00
2023-02-16T01:19:55.210Z,470.00
2023-02-16T01:20:55.194Z,470.00
2023-02-16T01:21:55.181Z,472.00
2023-02-16T01:22:55.177Z,473.00
2023-02-16T01:23:55.189Z,476.00
2023-02-16T01:24:55.162Z,475.00
2023-02-16T01:25:55.172Z,473.00
2023-02-16T01:26:55.163Z,472.00
2023-02-16T01:27:55.139Z,473.00
2023-02-16T01:28:55.120Z,475.00
2023-02-16T01:29:55.141Z,475.00
2023-02-16T01:30:55.188Z,476.00
2023-02-16T01:31:55.323Z,476.00
2023-02-16T01:32:55.087Z,476.00
2023-02-16T01:33:55.084Z,475.00
2023-02-16T01:34:55.071Z,473.00
2023-02-16T01:35:55.058Z,473.00
2023-02-16T01:36:55.052Z,475.00
2023-02-16T01:37:55.041Z,477.00
2023-02-16T01:38:55.067Z,480.00
2023-02-16T01:39:55.026Z,479.00
2023-02-16T01:40:55.023Z,479.00
2023-02-16T01:41:55.022Z,479.00
2023-02-16T01:42:55.039Z,481.00
2023-02-16T01:43:54.992Z,482.00
2023-02-16T01:44:54.987Z,484.00
2023-02-16T01:45:54.974Z,481.00
2023-02-16T01:46:55.118Z,481.00
2023-02-16T01:47:55.016Z,485.00
2023-02-16T01:48:54.953Z,485.00
2023-02-16T01:49:54.950Z,482.00
2023-02-16T01:50:54.931Z,483.00
2023-02-16T01:51:54.922Z,484.00
2023-02-16T01:52:54.914Z,481.00
2023-02-16T01:53:54.909Z,479.00
2023-02-16T01:54:54.904Z,478.00
2023-02-16T01:55:54.895Z,478.00
2023-02-16T01:56:54.887Z,476.00
2023-02-16T01:57:54.872Z,477.00
2023-02-16T01:58:54.883Z,478.00
2023-02-16T01:59:54.856Z,478.00
2023-02-16T02:00:54.859Z,479.00
2023-02-16T02:01:54.935Z,479.00
2023-02-16T02:02:54.898Z,479.00
2023-02-16T02:03:54.823Z,480.00
2023-02-16T02:04:54.814Z,480.00
2023-02-16T02:05:54.802Z,479.00
2023-02-16T02:06:54.796Z,479.00
2023-02-16T02:07:54.792Z,480.00
2023-02-16T02:08:54.782Z,480.00
2023-02-16T02:09:54.770Z,479.00
2023-02-16T02:10:54.764Z,480.00
2023-02-16T02:11:54.760Z,481.00
2023-02-16T02:12:54.810Z,480.00
2023-02-16T02:13:54.736Z,479.00
2023-02-16T02:14:54.753Z,478.00
2023-02-16T02:15:54.791Z,480.00
2023-02-16T02:16:54.769Z,480.00
2023-02-16T02:17:54.706Z,479.00
2023-02-16T02:18:54.697Z,479.00
2023-02-16T02:19:54.680Z,480.00
2023-02-16T02:20:54.672Z,479.00
2023-02-16T02:21:54.668Z,478.00
2023-02-16T02:22:54.667Z,478.00
2023-02-16T02:23:54.652Z,477.00
2023-02-16T02:24:54.640Z,477.00
2023-02-16T02:25:54.631Z,477.00
2023-02-16T02:26:54.624Z,479.00
2023-02-16T02:27:54.614Z,479.00
2023-02-16T02:28:54.615Z,480.00
2023-02-16T02:29:54.656Z,480.00
2023-02-16T02:30:54.749Z,481.00
2023-02-16T02:31:54.751Z,479.00
2023-02-16T02:32:54.574Z,476.00
2023-02-16T02:33:54.574Z,474.00
2023-02-16T02:34:54.551Z,472.00
2023-02-16T02:35:54.548Z,475.00
2023-02-16T02:36:54.538Z,473.00
2023-02-16T02:37:54.530Z,474.00
2023-02-16T02:38:54.524Z,473.00
2023-02-16T02:39:54.515Z,474.00
2023-02-16T02:40:55.671Z,477.00
2023-02-16T02:41:54.490Z,477.00
2023-02-16T02:42:54.482Z,480.00
2023-02-16T02:43:54.477Z,477.00
2023-02-16T02:44:54.483Z,476.00
2023-02-16T02:45:54.464Z,477.00
2023-02-16T02:46:54.630Z,474.00
2023-02-16T02:47:54.449Z,473.00
2023-02-16T02:48:54.435Z,473.00
2023-02-16T02:49:54.423Z,474.00
2023-02-16T02:50:54.418Z,476.00
2023-02-16T02:51:54.411Z,478.00
2023-02-16T02:52:54.403Z,479.00
2023-02-16T02:53:54.394Z,480.00
2023-02-16T02:54:54.388Z,478.00
2023-02-16T02:55:54.380Z,480.00
2023-02-16T02:56:54.368Z,479.00
2023-02-16T02:57:54.361Z,478.00
2023-02-16T02:58:54.348Z,478.00
2023-02-16T02:59:54.340Z,476.00
2023-02-16T03:00:54.392Z,475.00
2023-02-16T03:01:54.443Z,476.00
2023-02-16T03:02:54.350Z,475.00
2023-02-16T03:03:54.309Z,474.00
2023-02-16T03:04:54.305Z,473.00
2023-02-16T03:05:54.295Z,471.00
2023-02-16T03:06:54.287Z,471.00
2023-02-16T03:07:54.282Z,474.00
2023-02-16T03:08:54.268Z,474.00
2023-02-16T03:09:54.261Z,475.00
2023-02-16T03:10:54.250Z,475.00
2023-02-16T03:11:54.274Z,475.00
2023-02-16T03:12:54.234Z,477.00
2023-02-16T03:13:54.225Z,478.00
2023-02-16T03:14:54.211Z,481.00
2023-02-16T03:15:54.205Z,481.00
2023-02-16T03:16:54.195Z,481.00
2023-02-16T03:17:54.197Z,482.00
2023-02-16T03:18:54.210Z,483.00
2023-02-16T03:19:54.166Z,483.00
2023-02-16T03:20:54.158Z,486.00
2023-02-16T03:21:54.182Z,487.00
2023-02-16T03:22:54.143Z,487.00
2023-02-16T03:23:54.154Z,486.00
2023-02-16T03:24:54.128Z,487.00
2023-02-16T03:25:54.114Z,484.00
2023-02-16T03:26:54.105Z,484.00
2023-02-16T03:27:54.102Z,484.00
2023-02-16T03:28:54.100Z,482.00
2023-02-16T03:29:54.116Z,481.00
2023-02-16T03:30:54.119Z,481.00
2023-02-16T03:31:54.086Z,481.00
2023-02-16T03:32:54.049Z,484.00
2023-02-16T03:33:54.046Z,483.00
2023-02-16T03:34:54.070Z,483.00
2023-02-16T03:35:54.027Z,482.00
2023-02-16T03:36:54.021Z,481.00
2023-02-16T03:37:54.012Z,481.00
2023-02-16T03:38:54.005Z,480.00
2023-02-16T03:39:54.009Z,481.00
2023-02-16T03:40:53.983Z,480.00
2023-02-16T03:41:53.979Z,480.00
2023-02-16T03:42:53.967Z,479.00
2023-02-16T03:43:53.962Z,479.00
2023-02-16T03:44:53.968Z,479.00
2023-02-16T03:45:54.012Z,479.00
2023-02-16T03:46:53.934Z,480.00
2023-02-16T03:47:53.924Z,480.00
2023-02-16T03:48:53.915Z,479.00
2023-02-16T03:49:53.904Z,479.00
2023-02-16T03:50:53.928Z,479.00
2023-02-16T03:51:53.894Z,479.00
2023-02-16T03:52:53.885Z,478.00
2023-02-16T03:53:53.874Z,481.00
2023-02-16T03:54:53.863Z,481.00
2023-02-16T03:55:53.860Z,480.00
2023-02-16T03:56:53.861Z,480.00
2023-02-16T03:57:53.842Z,480.00
2023-02-16T03:58:53.835Z,477.00
2023-02-16T03:59:53.823Z,480.00
2023-02-16T04:00:53.820Z,480.00
2023-02-16T04:01:53.819Z,480.00
2023-02-16T04:02:53.795Z,480.00
2023-02-16T04:03:53.809Z,481.00
2023-02-16T04:04:53.782Z,482.00
2023-02-16T04:05:53.774Z,481.00
2023-02-16T04:06:53.792Z,480.00
2023-02-16T04:07:53.763Z,481.00
2023-02-16T04:08:53.747Z,479.00
2023-02-16T04:09:53.738Z,475.00
2023-02-16T04:10:53.727Z,472.00
2023-02-16T04:11:53.722Z,471.00
2023-02-16T04:12:53.758Z,469.00
2023-02-16T04:13:53.708Z,472.00
2023-02-16T04:14:53.700Z,473.00
2023-02-16T04:15:53.697Z,472.00
2023-02-16T04:16:53.697Z,473.00
2023-02-16T04:17:53.668Z,473.00
2023-02-16T04:18:53.671Z,471.00
2023-02-16T04:19:53.677Z,471.00
2023-02-16T04:20:53.643Z,470.00
2023-02-16T04:21:53.661Z,471.00
2023-02-16T04:22:53.707Z,472.00
2023-02-16T04:23:53.620Z,472.00
2023-02-16T04:24:53.615Z,472.00
2023-02-16T04:25:53.604Z,472.00
2023-02-16T04:26:53.598Z,472.00
2023-02-16T04:27:53.583Z,473.00
2023-02-16T04:28:53.575Z,474.00
2023-02-16T04:29:53.644Z,473.00
2023-02-16T04:30:53.656Z,471.00
2023-02-16T04:31:53.746Z,475.00
2023-02-16T04:32:53.545Z,477.00
2023-02-16T04:33:53.537Z,477.00
2023-02-16T04:34:53.527Z,476.00
2023-02-16T04:35:53.511Z,474.00
2023-02-16T04:36:53.504Z,477.00
2023-02-16T04:37:53.495Z,475.00
2023-02-16T04:38:53.577Z,473.00
2023-02-16T04:39:53.489Z,474.00
2023-02-16T04:40:53.473Z,474.00
2023-02-16T04:41:53.466Z,474.00
2023-02-16T04:42:53.457Z,477.00
2023-02-16T04:43:53.444Z,478.00
2023-02-16T04:44:53.444Z,478.00
2023-02-16T04:45:53.454Z,477.00
2023-02-16T04:46:53.416Z,479.00
2023-02-16T04:47:53.404Z,479.00
2023-02-16T04:48:53.401Z,481.00
2023-02-16T04:49:53.387Z,484.00
2023-02-16T04:50:53.383Z,483.00
2023-02-16T04:51:53.392Z,481.00
2023-02-16T04:52:53.365Z,480.00
2023-02-16T04:53:53.351Z,479.00
2023-02-16T04:54:53.437Z,479.00
2023-02-16T04:55:53.356Z,477.00
2023-02-16T04:56:53.337Z,478.00
2023-02-16T04:57:53.324Z,477.00
2023-02-16T04:58:53.322Z,478.00
2023-02-16T04:59:53.304Z,476.00
2023-02-16T05:00:53.294Z,478.00
2023-02-16T05:01:53.388Z,479.00
2023-02-16T05:02:53.288Z,480.00
2023-02-16T05:03:53.273Z,481.00
2023-02-16T05:04:53.370Z,481.00
2023-02-16T05:05:53.281Z,484.00
2023-02-16T05:06:53.248Z,484.00
2023-02-16T05:07:53.246Z,484.00
2023-02-16T05:08:53.230Z,485.00
2023-02-16T05:09:53.218Z,486.00
2023-02-16T05:10:53.237Z,486.00
2023-02-16T05:11:53.201Z,483.00
2023-02-16T05:12:53.206Z,484.00
2023-02-16T05:13:53.192Z,483.00
2023-02-16T05:14:53.177Z,485.00
2023-02-16T05:15:53.239Z,481.00
2023-02-16T05:16:53.156Z,482.00
2023-02-16T05:17:53.152Z,482.00
2023-02-16T05:18:53.146Z,484.00
2023-02-16T05:19:53.152Z,483.00
2023-02-16T05:20:53.122Z,483.00
2023-02-16T05:21:53.115Z,484.00
2023-02-16T05:22:53.105Z,483.00
2023-02-16T05:23:53.096Z,484.00
2023-02-16T05:24:53.096Z,485.00
2023-02-16T05:25:53.089Z,487.00
2023-02-16T05:26:53.099Z,486.00
2023-02-16T05:27:53.081Z,487.00
2023-02-16T05:28:53.069Z,483.00
2023-02-16T05:29:53.170Z,482.00
2023-02-16T05:30:53.080Z,481.00
2023-02-16T05:31:53.214Z,483.00
2023-02-16T05:32:53.053Z,485.00
2023-02-16T05:33:53.017Z,485.00
2023-02-16T05:34:53.002Z,488.00
2023-02-16T05:35:53.005Z,488.00
2023-02-16T05:36:53.000Z,489.00
2023-02-16T05:37:52.986Z,487.00
2023-02-16T05:38:52.970Z,487.00
2023-02-16T05:39:53.039Z,487.00
2023-02-16T05:40:52.960Z,485.00
2023-02-16T05:41:52.946Z,484.00
2023-02-16T05:42:53.036Z,483.00
2023-02-16T05:43:52.933Z,484.00
2023-02-16T05:44:52.925Z,482.00
2023-02-16T05:45:52.989Z,482.00
2023-02-16T05:46:52.907Z,481.00
2023-02-16T05:47:52.900Z,482.00
2023-02-16T05:48:52.889Z,478.00
2023-02-16T05:49:52.892Z,482.00
2023-02-16T05:50:52.872Z,482.00
2023-02-16T05:51:52.874Z,485.00
2023-02-16T05:52:52.854Z,485.00
2023-02-16T05:53:52.850Z,485.00
2023-02-16T05:54:52.844Z,481.00
2023-02-16T05:55:52.831Z,482.00
2023-02-16T05:56:52.828Z,482.00
2023-02-16T05:57:52.830Z,482.00
2023-02-16T05:58:52.842Z,479.00
2023-02-16T05:59:52.802Z,483.00
2023-02-16T06:00:52.787Z,482.00
2023-02-16T06:01:52.870Z,481.00
2023-02-16T06:02:52.919Z,481.00
2023-02-16T06:03:52.918Z,485.00
2023-02-16T06:04:52.757Z,488.00
2023-02-16T06:05:52.746Z,487.00
2023-02-16T06:06:52.743Z,488.00
2023-02-16T06:07:52.724Z,488.00
2023-02-16T06:08:52.719Z,490.00
2023-02-16T06:09:52.718Z,490.00
2023-02-16T06:10:52.701Z,490.00
2023-02-16T06:11:52.695Z,490.00
2023-02-16T06:12:52.687Z,491.00
2023-02-16T06:13:52.678Z,490.00
2023-02-16T06:14:52.689Z,490.00
2023-02-16T06:15:52.753Z,488.00
2023-02-16T06:16:52.652Z,488.00
2023-02-16T06:17:52.644Z,487.00
2023-02-16T06:18:52.631Z,486.00
2023-02-16T06:19:52.636Z,486.00
2023-02-16T06:20:52.613Z,487.00
2023-02-16T06:21:52.610Z,489.00
2023-02-16T06:22:52.613Z,489.00
2023-02-16T06:23:52.609Z,489.00
2023-02-16T06:24:52.587Z,488.00
2023-02-16T06:25:52.574Z,489.00
2023-02-16T06:26:52.566Z,488.00
2023-02-16T06:27:52.570Z,485.00
2023-02-16T06:28:52.548Z,486.00
2023-02-16T06:29:52.589Z,486.00
2023-02-16T06:30:52.562Z,484.00
2023-02-16T06:31:52.641Z,482.00
2023-02-16T06:32:52.524Z,482.00
2023-02-16T06:33:52.507Z,481.00
2023-02-16T06:34:52.503Z,478.00
2023-02-16T06:35:52.486Z,479.00
2023-02-16T06:36:52.477Z,477.00
2023-02-16T06:37:52.467Z,477.00
2023-02-16T06:38:52.462Z,477.00
2023-02-16T06:39:52.453Z,477.00
2023-02-16T06:40:52.442Z,477.00
2023-02-16T06:41:52.445Z,478.00
2023-02-16T06:42:52.429Z,478.00
2023-02-16T06:43:52.432Z,479.00
2023-02-16T06:44:52.426Z,482.00
2023-02-16T06:45:52.397Z,481.00
2023-02-16T06:46:52.497Z,479.00
2023-02-16T06:47:52.384Z,477.00
2023-02-16T06:48:52.378Z,478.00
2023-02-16T06:49:52.368Z,481.00
2023-02-16T06:50:52.355Z,481.00
2023-02-16T06:51:52.350Z,481.00
2023-02-16T06:52:52.343Z,484.00
2023-02-16T06:53:52.340Z,482.00
2023-02-16T06:54:52.321Z,485.00
2023-02-16T06:55:52.320Z,485.00
2023-02-16T06:56:52.309Z,488.00
2023-02-16T06:57:52.301Z,489.00
2023-02-16T06:58:52.293Z,491.00
2023-02-16T06:59:52.279Z,492.00
2023-02-16T07:00:52.328Z,494.00
2023-02-16T07:01:52.262Z,492.00
2023-02-16T07:02:52.396Z,494.00
2023-02-16T07:03:52.265Z,493.00
2023-02-16T07:04:52.242Z,494.00
2023-02-16T07:05:52.247Z,495.00
2023-02-16T07:06:52.222Z,496.00
2023-02-16T07:07:52.212Z,498.00
2023-02-16T07:08:52.208Z,495.00
2023-02-16T07:09:52.194Z,493.00
2023-02-16T07:10:52.190Z,493.00
2023-02-16T07:11:52.182Z,491.00
2023-02-16T07:12:52.174Z,490.00
2023-02-16T07:13:52.170Z,488.00
2023-02-16T07:14:52.153Z,487.00
2023-02-16T07:15:52.139Z,485.00
2023-02-16T07:16:52.135Z,487.00
2023-02-16T07:17:52.126Z,486.00
2023-02-16T07:18:52.143Z,487.00
2023-02-16T07:19:52.109Z,487.00
2023-02-16T07:20:52.099Z,487.00
2023-02-16T07:25:52.111Z,487.00
2023-02-16T09:23:51.031Z,498.00
2023-02-16T09:32:50.964Z,494.00
2023-02-16T09:34:50.936Z,498.00
2023-02-16T09:45:50.868Z,497.00
2023-02-16T09:46:50.830Z,496.00
2023-02-16T09:47:50.884Z,495.00
2023-02-16T09:48:50.827Z,496.00
2023-02-16T09:49:50.825Z,492.00
2023-02-16T09:50:54.202Z,488.00
2023-02-16T09:51:50.793Z,490.00
2023-02-16T09:52:52.428Z,490.00
2023-02-16T09:53:51.018Z,493.00
2023-02-16T09:55:50.999Z,492.00
2023-02-16T09:56:51.000Z,492.00
2023-02-16T09:58:51.052Z,490.00
2023-02-16T09:59:50.974Z,488.00
2023-02-16T10:00:50.961Z,488.00
2023-02-16T10:01:50.949Z,487.00
2023-02-16T10:02:51.005Z,485.00
2023-02-16T10:03:50.935Z,483.00
2023-02-16T10:04:50.928Z,485.00
2023-02-16T10:05:50.931Z,487.00
2023-02-16T10:06:50.910Z,488.00
2023-02-16T10:07:50.900Z,490.00
2023-02-16T10:08:50.889Z,491.00
2023-02-16T10:09:50.879Z,491.00
2023-02-16T10:11:50.875Z,490.00
2023-02-16T10:12:50.859Z,491.00
2023-02-16T10:13:50.847Z,492.00
2023-02-16T10:14:50.874Z,493.00
2023-02-16T10:15:53.592Z,494.00
2023-02-16T10:16:50.831Z,493.00
2023-02-16T10:17:50.812Z,495.00
2023-02-16T10:18:50.808Z,491.00
2023-02-16T10:21:50.786Z,496.00
2023-02-16T10:22:50.768Z,496.00
2023-02-16T10:23:50.762Z,498.00
2023-02-16T10:24:50.749Z,500.00
2023-02-16T10:25:50.743Z,499.00
2023-02-16T10:26:50.738Z,496.00
2023-02-16T10:27:50.733Z,494.00
2023-02-16T10:28:50.719Z,494.00
2023-02-16T10:29:50.707Z,494.00
2023-02-16T10:31:50.831Z,491.00
2023-02-16T10:32:50.687Z,490.00
2023-02-16T10:33:50.691Z,489.00
2023-02-16T10:34:50.669Z,488.00
2023-02-16T10:35:50.660Z,489.00
2023-02-16T10:36:50.650Z,488.00
2023-02-16T10:38:50.649Z,489.00
2023-02-16T10:39:50.628Z,489.00
2023-02-16T10:40:50.620Z,486.00
2023-02-16T10:41:50.614Z,486.00
2023-02-16T10:42:50.600Z,487.00
2023-02-16T10:43:50.602Z,487.00
2023-02-16T10:44:50.602Z,488.00
2023-02-16T10:45:52.431Z,489.00
2023-02-16T10:46:50.638Z,487.00
2023-02-16T10:47:50.565Z,488.00
2023-02-16T10:48:50.549Z,491.00
2023-02-16T10:49:50.548Z,491.00
2023-02-16T10:50:50.536Z,492.00
2023-02-16T10:51:50.528Z,492.00
2023-02-16T10:52:50.525Z,492.00
2023-02-16T10:53:50.510Z,494.00
2023-02-16T10:54:50.504Z,495.00
2023-02-16T10:55:50.490Z,496.00
2023-02-16T10:56:50.501Z,496.00
2023-02-16T10:57:50.488Z,496.00
2023-02-16T10:58:50.466Z,496.00
2023-02-16T10:59:50.454Z,495.00
2023-02-16T11:00:50.454Z,494.00
2023-02-16T11:01:50.499Z,497.00
2023-02-16T11:02:50.458Z,496.00
2023-02-16T11:03:50.426Z,497.00
2023-02-16T11:04:50.439Z,495.00
2023-02-16T11:05:50.435Z,494.00
2023-02-16T11:06:50.406Z,490.00
2023-02-16T11:07:50.390Z,490.00
2023-02-16T11:08:50.391Z,488.00
2023-02-16T11:09:50.376Z,489.00
2023-02-16T11:10:50.370Z,489.00
2023-02-16T11:12:50.356Z,490.00
2023-02-16T11:13:50.335Z,490.00
2023-02-16T11:14:50.329Z,490.00
2023-02-16T11:15:50.358Z,488.00
2023-02-16T11:16:50.316Z,490.00
2023-02-16T11:17:50.305Z,491.00
2023-02-16T11:18:50.324Z,492.00
2023-02-16T11:19:50.296Z,491.00
2023-02-16T11:20:50.292Z,489.00
2023-02-16T11:21:50.326Z,489.00
2023-02-16T11:22:50.271Z,489.00
2023-02-16T11:23:50.254Z,491.00
2023-02-16T11:24:50.250Z,490.00
2023-02-16T11:25:50.230Z,490.00
2023-02-16T11:26:50.226Z,489.00
2023-02-16T11:27:50.218Z,492.00
2023-02-16T11:28:50.213Z,494.00
2023-02-16T11:29:50.200Z,495.00
2023-02-16T11:30:50.234Z,494.00
2023-02-16T11:31:50.312Z,493.00
2023-02-16T11:32:50.174Z,494.00
2023-02-16T11:33:50.171Z,492.00
2023-02-16T11:34:50.191Z,492.00
2023-02-16T11:35:50.150Z,489.00
2023-02-16T11:36:50.142Z,490.00
2023-02-16T11:37:50.134Z,489.00
2023-02-16T11:38:50.132Z,488.00
2023-02-16T11:39:50.112Z,489.00
2023-02-16T11:40:50.103Z,490.00
2023-02-16T11:41:50.097Z,489.00
2023-02-16T11:42:50.084Z,489.00
2023-02-16T11:43:50.075Z,490.00
2023-02-16T11:44:50.073Z,488.00
2023-02-16T11:45:50.060Z,487.00
2023-02-16T11:46:50.079Z,487.00
2023-02-16T11:47:50.033Z,487.00
2023-02-16T11:48:50.025Z,487.00
2023-02-16T11:49:50.022Z,484.00
2023-02-16T11:50:50.034Z,486.00
2023-02-16T11:51:50.000Z,489.00
2023-02-16T11:52:49.992Z,488.00
2023-02-16T11:53:49.984Z,487.00
2023-02-16T11:54:49.972Z,487.00
2023-02-16T11:55:49.971Z,486.00
2023-02-16T11:56:49.971Z,484.00
2023-02-16T11:57:49.949Z,485.00
2023-02-16T11:58:49.940Z,487.00
2023-02-16T11:59:49.931Z,488.00
2023-02-16T12:00:49.929Z,489.00
2023-02-16T12:01:49.914Z,490.00
2023-02-16T12:02:49.905Z,489.00
2023-02-16T12:03:49.945Z,488.00
2023-02-16T12:04:49.894Z,487.00
2023-02-16T12:05:49.886Z,486.00
2023-02-16T12:06:49.917Z,483.00
2023-02-16T12:07:49.868Z,481.00
2023-02-16T12:08:49.851Z,479.00
2023-02-16T12:09:49.853Z,477.00
2023-02-16T12:10:49.835Z,480.00
2023-02-16T12:11:49.836Z,482.00
2023-02-16T12:12:49.817Z,483.00
2023-02-16T12:13:49.810Z,486.00
2023-02-16T12:14:49.801Z,487.00
2023-02-16T12:15:49.795Z,487.00
2023-02-16T12:16:49.782Z,487.00
2023-02-16T12:17:49.775Z,485.00
2023-02-16T12:18:49.764Z,486.00
2023-02-16T12:19:49.781Z,486.00
2023-02-16T12:20:49.769Z,484.00
2023-02-16T12:21:49.745Z,486.00
2023-02-16T12:22:49.769Z,484.00
2023-02-16T12:23:49.722Z,484.00
2023-02-16T12:24:49.725Z,481.00
2023-02-16T12:25:49.713Z,482.00
2023-02-16T12:26:49.714Z,480.00
2023-02-16T12:27:49.693Z,481.00
2023-02-16T12:28:49.687Z,483.00
2023-02-16T12:29:49.673Z,487.00
2023-02-16T12:30:49.705Z,489.00
2023-02-16T12:31:49.692Z,488.00
2023-02-16T12:32:49.638Z,487.00
2023-02-16T12:33:49.678Z,487.00
2023-02-16T12:34:49.624Z,488.00
2023-02-16T12:35:49.627Z,487.00
2023-02-16T12:36:49.607Z,483.00
2023-02-16T12:37:49.599Z,484.00
2023-02-16T12:38:49.609Z,485.00
2023-02-16T12:39:49.582Z,486.00
2023-02-16T12:40:49.575Z,485.00
2023-02-16T12:41:49.567Z,487.00
2023-02-16T12:42:49.550Z,487.00
2023-02-16T12:43:49.559Z,488.00
2023-02-16T12:44:49.544Z,487.00
2023-02-16T12:45:49.561Z,489.00
2023-02-16T12:46:49.523Z,490.00
2023-02-16T12:47:49.506Z,489.00
2023-02-16T12:48:49.522Z,489.00
2023-02-16T12:49:49.491Z,490.00
2023-02-16T12:50:49.489Z,489.00
2023-02-16T12:51:49.476Z,490.00
2023-02-16T12:52:49.466Z,488.00
2023-02-16T12:53:49.457Z,488.00
2023-02-16T12:54:49.478Z,491.00
2023-02-16T12:55:49.451Z,491.00
2023-02-16T12:56:49.430Z,491.00
2023-02-16T12:57:49.429Z,492.00
2023-02-16T12:58:49.408Z,489.00
2023-02-16T12:59:49.410Z,489.00
2023-02-16T13:00:49.449Z,490.00
2023-02-16T13:01:49.392Z,492.00
2023-02-16T13:02:49.379Z,491.00
2023-02-16T13:03:49.422Z,490.00
2023-02-16T13:04:49.366Z,486.00
2023-02-16T13:05:49.356Z,486.00
2023-02-16T13:06:49.355Z,486.00
2023-02-16T13:07:49.356Z,486.00
2023-02-16T13:08:49.340Z,488.00
2023-02-16T13:09:49.322Z,489.00
2023-02-16T13:10:49.340Z,488.00
2023-02-16T13:11:49.395Z,488.00
2023-02-16T13:12:49.309Z,488.00
2023-02-16T13:13:49.293Z,489.00
2023-02-16T13:14:49.283Z,489.00
2023-02-16T13:15:49.272Z,489.00
2023-02-16T13:16:49.283Z,491.00
2023-02-16T13:17:49.276Z,492.00
2023-02-16T13:18:49.252Z,493.00
2023-02-16T13:19:49.240Z,490.00
2023-02-16T13:20:49.271Z,488.00
2023-02-16T13:21:51.625Z,487.00
2023-02-16T13:22:49.225Z,487.00
2023-02-16T13:23:49.211Z,487.00
2023-02-16T13:24:49.211Z,487.00
2023-02-16T13:25:49.430Z,487.00
2023-02-16T13:26:49.278Z,487.00
2023-02-16T13:27:49.178Z,491.00
2023-02-16T13:28:49.285Z,491.00
2023-02-16T13:29:49.157Z,491.00
2023-02-16T13:30:49.412Z,491.00
2023-02-16T13:31:49.257Z,489.00
2023-02-16T13:32:49.128Z,490.00
2023-02-16T13:33:49.127Z,489.00
2023-02-16T13:34:49.126Z,489.00
2023-02-16T13:35:49.181Z,491.00
2023-02-16T13:36:49.098Z,489.00
2023-02-16T13:37:49.084Z,494.00
2023-02-16T13:38:49.080Z,494.00
2023-02-16T13:39:49.085Z,495.00
2023-02-16T13:40:49.060Z,494.00
2023-02-16T13:41:49.070Z,492.00
2023-02-16T13:42:49.089Z,492.00
2023-02-16T13:43:49.035Z,492.00
2023-02-16T13:44:49.029Z,490.00
2023-02-16T13:45:49.035Z,490.00
2023-02-16T13:46:49.007Z,493.00
2023-02-16T13:47:49.000Z,495.00
2023-02-16T13:48:48.991Z,496.00
2023-02-16T13:49:48.986Z,495.00
2023-02-16T13:50:48.977Z,496.00
2023-02-16T13:51:48.963Z,498.00
2023-02-16T13:52:48.953Z,498.00
2023-02-16T13:53:48.946Z,499.00
2023-02-16T13:54:48.936Z,499.00
2023-02-16T13:55:48.950Z,499.00
2023-02-16T13:56:48.925Z,498.00
2023-02-16T13:57:50.773Z,500.00
2023-02-16T13:58:48.930Z,498.00
2023-02-16T13:59:48.892Z,497.00
2023-02-16T14:00:48.891Z,497.00
2023-02-16T14:01:48.899Z,497.00
2023-02-16T14:02:48.869Z,495.00
2023-02-16T14:03:48.859Z,495.00
2023-02-16T14:04:48.870Z,492.00
2023-02-16T14:05:48.851Z,489.00
2023-02-16T14:06:48.834Z,488.00
2023-02-16T14:07:48.828Z,488.00
2023-02-16T14:08:48.819Z,491.00
2023-02-16T14:09:48.865Z,488.00
2023-02-16T14:10:48.800Z,488.00
2023-02-16T14:11:48.790Z,489.00
2023-02-16T14:12:48.788Z,491.00
2023-02-16T14:13:48.772Z,492.00
2023-02-16T14:14:50.352Z,492.00
2023-02-16T14:15:48.825Z,490.00
2023-02-16T14:16:48.747Z,487.00
2023-02-16T14:17:48.737Z,487.00
2023-02-16T14:18:48.743Z,487.00
2023-02-16T14:19:48.732Z,489.00
2023-02-16T14:20:50.676Z,490.00
2023-02-16T14:21:48.702Z,489.00
2023-02-16T14:22:48.692Z,491.00
2023-02-16T14:23:48.691Z,490.00
2023-02-16T14:24:48.676Z,489.00
2023-02-16T14:25:48.678Z,489.00
2023-02-16T14:26:48.662Z,487.00
2023-02-16T14:27:48.695Z,487.00
2023-02-16T14:28:48.655Z,486.00
2023-02-16T14:29:48.636Z,486.00
2023-02-16T14:30:48.664Z,486.00
2023-02-16T14:31:48.762Z,489.00
2023-02-16T14:32:48.607Z,487.00
2023-02-16T14:33:48.600Z,486.00
2023-02-16T14:34:48.597Z,486.00
2023-02-16T14:35:48.589Z,484.00
2023-02-16T14:36:48.572Z,482.00
2023-02-16T14:37:48.567Z,487.00
2023-02-16T14:38:48.563Z,487.00
2023-02-16T14:40:06.874Z,485.00
2023-02-16T14:40:48.569Z,486.00
2023-02-16T14:41:48.540Z,485.00
2023-02-16T14:42:48.526Z,483.00
2023-02-16T14:43:48.513Z,483.00
2023-02-16T14:44:48.502Z,481.00
2023-02-16T14:45:48.507Z,484.00
2023-02-16T14:46:48.508Z,483.00
2023-02-16T14:47:48.483Z,484.00
2023-02-16T14:48:48.496Z,486.00
2023-02-16T14:49:48.463Z,488.00
2023-02-16T14:50:48.450Z,487.00
2023-02-16T14:51:48.451Z,490.00
2023-02-16T14:52:48.431Z,489.00
2023-02-16T14:53:48.425Z,488.00
2023-02-16T14:54:48.496Z,488.00
2023-02-16T14:55:48.493Z,487.00
2023-02-16T14:56:48.405Z,486.00
2023-02-16T14:57:48.388Z,484.00
2023-02-16T14:58:48.383Z,485.00
2023-02-16T14:59:48.370Z,484.00
2023-02-16T15:00:48.368Z,485.00
2023-02-16T15:01:48.465Z,486.00
2023-02-16T15:02:48.376Z,487.00
2023-02-16T15:03:48.538Z,487.00
2023-02-16T15:04:48.344Z,487.00
2023-02-16T15:05:48.320Z,482.00
2023-02-16T15:06:48.312Z,482.00
2023-02-16T15:07:48.317Z,481.00
2023-02-16T15:08:48.918Z,483.00
2023-02-16T15:09:48.284Z,482.00
2023-02-16T15:10:48.280Z,482.00
2023-02-16T15:11:48.266Z,480.00
2023-02-16T15:12:48.255Z,480.00
2023-02-16T15:13:48.258Z,482.00
2023-02-16T15:14:48.242Z,482.00
2023-02-16T15:15:48.288Z,483.00
2023-02-16T15:16:48.224Z,483.00
2023-02-16T15:17:48.222Z,484.00
2023-02-16T15:18:48.254Z,486.00
2023-02-16T15:19:48.207Z,488.00
2023-02-16T15:20:48.222Z,491.00
2023-02-16T15:21:48.184Z,496.00
2023-02-16T15:22:48.176Z,494.00
2023-02-16T15:23:48.165Z,492.00
2023-02-16T15:24:48.163Z,491.00
2023-02-16T15:25:48.149Z,490.00
2023-02-16T15:26:48.136Z,490.00
2023-02-16T15:27:48.132Z,490.00
2023-02-16T15:28:48.121Z,488.00
2023-02-16T15:29:48.118Z,487.00
2023-02-16T15:30:48.180Z,486.00
2023-02-16T15:31:48.278Z,487.00
2023-02-16T15:32:48.095Z,485.00
2023-02-16T15:33:48.074Z,484.00
2023-02-16T15:34:48.095Z,486.00
2023-02-16T15:35:48.078Z,487.00
2023-02-16T15:36:48.052Z,488.00
2023-02-16T15:37:48.049Z,490.00
2023-02-16T15:38:48.033Z,491.00
2023-02-16T15:40:06.099Z,489.00
2023-02-16T15:40:48.030Z,489.00
2023-02-16T15:41:48.017Z,489.00
2023-02-16T15:42:47.996Z,488.00
2023-02-16T15:43:47.995Z,488.00
2023-02-16T15:44:47.981Z,493.00
2023-02-16T15:45:47.972Z,495.00
2023-02-16T15:46:48.004Z,495.00
2023-02-16T15:47:47.954Z,494.00
2023-02-16T15:48:47.952Z,496.00